Terminal Aerodrome Forecast
Issued by NWS Pocatello, ID

Home | Current Version | Previous Version | Text Only | Print | Product List | Glossary On
Versions: 1 2 3 4 5 6 7 8 9 10 11 12
000
FTUS45 KPIH 161700
TAFIDA
TAF
KIDA 161720Z 1618/1718 VRB05KT P6SM VCSH SCT100 BKN250
     FM162000 22009KT P6SM FEW100
     FM170200 VRB05KT P6SM SCT250=

USA.gov is the U.S. government's official web portal to all federal, state and local government web resources and services.